Vindeby, Denmark
Current Conditions -  °F | °C
As of 5:20 PM on Tuesday 21 Oct 2014 (Local Time) from EKSB Reporting Station
Light Rain Light Rain  
Wind Chill: 54°   Ceiling: 1300
Heat Index: 54°   Visibility: 4mi
Dew Point: 52°   Wind: 14mph
Humidity: 94%   Direction: 150°SSE
Pressure: 29.32"   Gusts: NA
Location:  55.04°N, 10.61°E
Report Text: EKSB 211520Z 15012KT 6000 -RA SCT007 BKN013 12/11 Q0993
Loading
Personal Weather Stations






























Interactive Weather Map
Tropical Storm Tracking
New forecast layout! Learn more

10-Day Weather Forecast

Advertisements
Track Severe Weather on mobile